Connexion S'enregistrer

Connexion à votre compte

Identifiant
Mot de passe
Maintenir la connexion active sur ce site

Créer un compte

Pour valider ce formulaire, vous devez remplir tous les champs.
Nom
Identifiant
Mot de passe
Répétez le mot de passe
Adresse e-mail
Répétez l'adresse e-mail

L'Aéroclub de Savoie reprend progressivement son activité.

A compter du 07 juillet 2020, nous reprenons l'ensemble des vols, y compris les vols de découverte, d'initiation au pilotage, ainsi que les packs 2 heures et 5 heures.

Compte tenu des demandes en attente, des délais sont à prévoir. Toutefois, nous ferons le maximum pour répondre à vos attentes dans les meilleures conditions.

A compter du 07 juillet, la permanence téléphonique (04 79 54 41 81) sera tenue de 14h à 17h30, du mardi au vendredi, et de 9h00 à 12h30 le samedi matin.

Nous contacter

 Téléphone : +33 (0)4 79 54 41 81

Coordonnées détaillées et accès : cliquez ici

 
LFLB °C
    Ferienhaus Ostsee
[source: ADDS]
METAR
LFLB 100400Z AUTO VRB02KT CAVOK 16/12 Q1016 NOSIG =
TAF LFLB 092300Z 1000/1024 VRB04KT CAVOK BECMG 1010/1012 SCT053TCU TEMPO 1015/1024 VRB15G25KT 4000 SHRA SCT053TCU BKN100 PROB40 TEMPO 1015/1019 VRB25G45KT 2000 TSRA BKN050CB PROB30 TEMPO 1015/1017 1000 TSGR
TAF
TAF LFLB 092300Z 1000/1024 VRB04KT CAVOK BECMG 1010/1012 SCT053TCU TEMPO 1015/1024 VRB15G25KT 4000 SHRA SCT053TCU BKN100 PROB40 TEMPO 1015/1019 VRB25G45KT 2000 TSRA BKN050CB PROB30 TEMPO 1015/1017 1000 TSGR =
SR / SS: 03:57 / 19:26 UTC (Lever/Coucher du soleil le 2020-07-10)
JSN Boot template designed by JoomlaShine.com